sensor_id;sensor_type;location;lat;lon;timestamp;P1;durP1;ratioP1;P2;durP2;ratioP2
80700;SDS011;71609;42.630;23.380;2023-10-13T00:01:30;3.83;;;1.67;;
80700;SDS011;71609;42.630;23.380;2023-10-13T00:03:56;4.95;;;2.00;;
80700;SDS011;71609;42.630;23.380;2023-10-13T00:06:22;5.28;;;2.15;;
80700;SDS011;71609;42.630;23.380;2023-10-13T00:08:48;4.65;;;1.98;;
80700;SDS011;71609;42.630;23.380;2023-10-13T00:11:15;3.72;;;1.80;;
80700;SDS011;71609;42.630;23.380;2023-10-13T00:13:41;4.55;;;1.92;;
80700;SDS011;71609;42.630;23.380;2023-10-13T00:16:08;4.30;;;2.00;;
80700;SDS011;71609;42.630;23.380;2023-10-13T00:18:42;4.68;;;2.00;;
80700;SDS011;71609;42.630;23.380;2023-10-13T00:21:09;4.97;;;2.25;;
80700;SDS011;71609;42.630;23.380;2023-10-13T00:23:42;6.05;;;2.00;;
80700;SDS011;71609;42.630;23.380;2023-10-13T00:26:18;5.28;;;2.10;;
80700;SDS011;71609;42.630;23.380;2023-10-13T00:28:49;4.28;;;1.90;;
80700;SDS011;71609;42.630;23.380;2023-10-13T00:31:24;4.47;;;2.03;;
80700;SDS011;71609;42.630;23.380;2023-10-13T00:34:01;5.63;;;2.10;;
80700;SDS011;71609;42.630;23.380;2023-10-13T00:36:51;3.45;;;1.80;;
80700;SDS011;71609;42.630;23.380;2023-10-13T00:39:35;5.25;;;2.28;;
80700;SDS011;71609;42.630;23.380;2023-10-13T00:42:05;5.32;;;2.53;;
80700;SDS011;71609;42.630;23.380;2023-10-13T00:44:42;4.45;;;1.90;;
80700;SDS011;71609;42.630;23.380;2023-10-13T00:47:13;7.63;;;1.98;;
80700;SDS011;71609;42.630;23.380;2023-10-13T00:49:59;4.65;;;2.10;;
80700;SDS011;71609;42.630;23.380;2023-10-13T00:52:25;4.38;;;2.00;;
80700;SDS011;71609;42.630;23.380;2023-10-13T00:54:51;4.38;;;2.20;;
80700;SDS011;71609;42.630;23.380;2023-10-13T00:57:18;5.35;;;2.25;;
80700;SDS011;71609;42.630;23.380;2023-10-13T00:59:57;4.97;;;2.00;;
80700;SDS011;71609;42.630;23.380;2023-10-13T01:02:23;3.88;;;1.77;;
80700;SDS011;71609;42.630;23.380;2023-10-13T01:05:01;4.18;;;1.88;;
80700;SDS011;71609;42.630;23.380;2023-10-13T01:07:34;4.75;;;1.90;;
80700;SDS011;71609;42.630;23.380;2023-10-13T01:10:02;4.35;;;2.10;;
80700;SDS011;71609;42.630;23.380;2023-10-13T01:12:32;5.00;;;2.15;;
80700;SDS011;71609;42.630;23.380;2023-10-13T01:14:58;3.53;;;1.67;;
80700;SDS011;71609;42.630;23.380;2023-10-13T01:17:24;6.70;;;2.30;;
80700;SDS011;71609;42.630;23.380;2023-10-13T01:19:57;3.90;;;1.85;;
80700;SDS011;71609;42.630;23.380;2023-10-13T01:22:24;4.50;;;1.92;;
80700;SDS011;71609;42.630;23.380;2023-10-13T01:24:49;6.32;;;1.98;;
80700;SDS011;71609;42.630;23.380;2023-10-13T01:27:16;4.70;;;2.03;;
80700;SDS011;71609;42.630;23.380;2023-10-13T01:29:46;3.72;;;1.63;;
80700;SDS011;71609;42.630;23.380;2023-10-13T01:32:23;4.50;;;2.00;;
80700;SDS011;71609;42.630;23.380;2023-10-13T01:34:50;4.05;;;2.05;;
80700;SDS011;71609;42.630;23.380;2023-10-13T01:37:20;4.40;;;1.98;;
80700;SDS011;71609;42.630;23.380;2023-10-13T01:39:47;4.53;;;1.88;;
80700;SDS011;71609;42.630;23.380;2023-10-13T01:42:14;5.00;;;2.05;;
80700;SDS011;71609;42.630;23.380;2023-10-13T01:44:50;4.53;;;1.90;;
80700;SDS011;71609;42.630;23.380;2023-10-13T01:47:16;3.92;;;1.70;;
80700;SDS011;71609;42.630;23.380;2023-10-13T01:49:42;3.72;;;1.70;;
80700;SDS011;71609;42.630;23.380;2023-10-13T01:52:11;3.95;;;1.83;;
80700;SDS011;71609;42.630;23.380;2023-10-13T01:54:40;5.35;;;1.95;;
80700;SDS011;71609;42.630;23.380;2023-10-13T01:57:09;4.82;;;1.90;;
80700;SDS011;71609;42.630;23.380;2023-10-13T01:59:42;4.15;;;1.75;;
80700;SDS011;71609;42.630;23.380;2023-10-13T02:02:13;3.65;;;1.80;;
80700;SDS011;71609;42.630;23.380;2023-10-13T02:04:39;4.63;;;2.00;;
80700;SDS011;71609;42.630;23.380;2023-10-13T02:07:15;5.13;;;2.35;;
80700;SDS011;71609;42.630;23.380;2023-10-13T02:09:41;4.60;;;2.00;;
80700;SDS011;71609;42.630;23.380;2023-10-13T02:12:10;4.70;;;2.00;;
80700;SDS011;71609;42.630;23.380;2023-10-13T02:14:36;4.50;;;2.03;;
80700;SDS011;71609;42.630;23.380;2023-10-13T02:17:04;4.93;;;2.00;;
80700;SDS011;71609;42.630;23.380;2023-10-13T02:19:41;4.57;;;1.90;;
80700;SDS011;71609;42.630;23.380;2023-10-13T02:22:10;5.28;;;2.00;;
80700;SDS011;71609;42.630;23.380;2023-10-13T02:24:37;5.53;;;2.10;;
80700;SDS011;71609;42.630;23.380;2023-10-13T02:27:09;5.07;;;2.03;;
80700;SDS011;71609;42.630;23.380;2023-10-13T02:29:41;3.60;;;1.67;;
80700;SDS011;71609;42.630;23.380;2023-10-13T02:32:10;4.32;;;2.13;;
80700;SDS011;71609;42.630;23.380;2023-10-13T02:34:55;4.63;;;1.85;;
80700;SDS011;71609;42.630;23.380;2023-10-13T02:37:30;5.35;;;1.80;;
80700;SDS011;71609;42.630;23.380;2023-10-13T02:39:56;4.63;;;1.88;;
80700;SDS011;71609;42.630;23.380;2023-10-13T02:42:22;4.32;;;1.92;;
80700;SDS011;71609;42.630;23.380;2023-10-13T02:44:49;4.40;;;1.80;;
80700;SDS011;71609;42.630;23.380;2023-10-13T02:47:16;3.55;;;1.80;;
80700;SDS011;71609;42.630;23.380;2023-10-13T02:49:43;4.35;;;2.05;;
80700;SDS011;71609;42.630;23.380;2023-10-13T02:52:11;3.42;;;1.70;;
80700;SDS011;71609;42.630;23.380;2023-10-13T02:54:38;4.07;;;1.80;;
80700;SDS011;71609;42.630;23.380;2023-10-13T02:57:16;4.17;;;1.77;;
80700;SDS011;71609;42.630;23.380;2023-10-13T02:59:43;4.55;;;1.90;;
80700;SDS011;71609;42.630;23.380;2023-10-13T03:02:13;4.63;;;1.85;;
80700;SDS011;71609;42.630;23.380;2023-10-13T03:04:54;4.90;;;2.03;;
80700;SDS011;71609;42.630;23.380;2023-10-13T03:07:27;6.03;;;2.05;;
80700;SDS011;71609;42.630;23.380;2023-10-13T03:09:59;5.43;;;2.13;;
80700;SDS011;71609;42.630;23.380;2023-10-13T03:12:25;4.18;;;1.92;;
80700;SDS011;71609;42.630;23.380;2023-10-13T03:14:58;4.50;;;2.00;;
80700;SDS011;71609;42.630;23.380;2023-10-13T03:17:42;4.53;;;2.03;;
80700;SDS011;71609;42.630;23.380;2023-10-13T03:20:11;5.20;;;2.03;;
80700;SDS011;71609;42.630;23.380;2023-10-13T03:22:41;4.30;;;1.80;;
80700;SDS011;71609;42.630;23.380;2023-10-13T03:25:13;4.63;;;1.83;;
80700;SDS011;71609;42.630;23.380;2023-10-13T03:28:02;3.45;;;1.60;;
80700;SDS011;71609;42.630;23.380;2023-10-13T03:30:32;3.70;;;1.58;;
80700;SDS011;71609;42.630;23.380;2023-10-13T03:33:05;5.63;;;1.98;;
80700;SDS011;71609;42.630;23.380;2023-10-13T03:35:37;4.90;;;1.90;;
80700;SDS011;71609;42.630;23.380;2023-10-13T03:38:07;5.25;;;2.20;;
80700;SDS011;71609;42.630;23.380;2023-10-13T03:40:42;5.10;;;2.20;;
80700;SDS011;71609;42.630;23.380;2023-10-13T03:43:13;4.53;;;1.90;;
80700;SDS011;71609;42.630;23.380;2023-10-13T03:45:44;5.07;;;1.90;;
80700;SDS011;71609;42.630;23.380;2023-10-13T03:48:16;6.68;;;1.88;;
80700;SDS011;71609;42.630;23.380;2023-10-13T03:50:50;4.18;;;1.80;;
80700;SDS011;71609;42.630;23.380;2023-10-13T03:53:40;4.18;;;1.60;;
80700;SDS011;71609;42.630;23.380;2023-10-13T03:56:19;3.10;;;1.48;;
80700;SDS011;71609;42.630;23.380;2023-10-13T03:59:04;4.97;;;1.90;;
80700;SDS011;71609;42.630;23.380;2023-10-13T04:01:35;3.83;;;1.90;;
80700;SDS011;71609;42.630;23.380;2023-10-13T04:04:16;3.45;;;1.58;;
80700;SDS011;71609;42.630;23.380;2023-10-13T04:07:15;3.50;;;1.60;;
80700;SDS011;71609;42.630;23.380;2023-10-13T04:09:59;4.07;;;1.92;;
80700;SDS011;71609;42.630;23.380;2023-10-13T04:12:43;4.25;;;2.13;;
80700;SDS011;71609;42.630;23.380;2023-10-13T04:15:27;4.20;;;1.90;;
80700;SDS011;71609;42.630;23.380;2023-10-13T04:18:04;5.07;;;2.25;;
80700;SDS011;71609;42.630;23.380;2023-10-13T04:20:40;6.65;;;1.95;;
80700;SDS011;71609;42.630;23.380;2023-10-13T04:23:11;6.45;;;1.90;;
80700;SDS011;71609;42.630;23.380;2023-10-13T04:25:42;5.95;;;1.95;;
80700;SDS011;71609;42.630;23.380;2023-10-13T04:28:11;6.13;;;2.65;;
80700;SDS011;71609;42.630;23.380;2023-10-13T04:30:59;6.30;;;2.83;;
80700;SDS011;71609;42.630;23.380;2023-10-13T04:33:36;6.20;;;2.58;;
80700;SDS011;71609;42.630;23.380;2023-10-13T04:36:21;7.80;;;3.10;;
80700;SDS011;71609;42.630;23.380;2023-10-13T04:38:56;10.02;;;3.20;;
80700;SDS011;71609;42.630;23.380;2023-10-13T04:41:30;10.75;;;2.92;;
80700;SDS011;71609;42.630;23.380;2023-10-13T04:46:34;8.45;;;2.95;;
80700;SDS011;71609;42.630;23.380;2023-10-13T04:49:12;6.97;;;3.00;;
80700;SDS011;71609;42.630;23.380;2023-10-13T04:51:56;9.23;;;3.20;;
80700;SDS011;71609;42.630;23.380;2023-10-13T04:57:35;6.00;;;3.10;;
80700;SDS011;71609;42.630;23.380;2023-10-13T05:00:10;9.10;;;3.30;;
80700;SDS011;71609;42.630;23.380;2023-10-13T05:02:36;11.43;;;3.42;;
80700;SDS011;71609;42.630;23.380;2023-10-13T05:05:10;7.50;;;2.90;;
80700;SDS011;71609;42.630;23.380;2023-10-13T05:07:44;8.00;;;3.60;;
80700;SDS011;71609;42.630;23.380;2023-10-13T05:10:29;9.32;;;3.63;;
80700;SDS011;71609;42.630;23.380;2023-10-13T05:13:14;11.45;;;3.70;;
80700;SDS011;71609;42.630;23.380;2023-10-13T05:15:59;13.32;;;3.05;;
80700;SDS011;71609;42.630;23.380;2023-10-13T05:18:43;10.70;;;3.70;;
80700;SDS011;71609;42.630;23.380;2023-10-13T05:21:28;6.88;;;3.42;;
80700;SDS011;71609;42.630;23.380;2023-10-13T05:24:12;9.30;;;3.75;;
80700;SDS011;71609;42.630;23.380;2023-10-13T05:26:57;11.02;;;3.60;;
80700;SDS011;71609;42.630;23.380;2023-10-13T05:29:41;7.25;;;3.38;;
80700;SDS011;71609;42.630;23.380;2023-10-13T05:35:08;13.68;;;3.47;;
80700;SDS011;71609;42.630;23.380;2023-10-13T05:37:53;14.73;;;3.72;;
80700;SDS011;71609;42.630;23.380;2023-10-13T05:40:37;10.20;;;4.00;;
80700;SDS011;71609;42.630;23.380;2023-10-13T05:43:21;22.27;;;4.38;;
80700;SDS011;71609;42.630;23.380;2023-10-13T05:46:05;15.48;;;3.90;;
80700;SDS011;71609;42.630;23.380;2023-10-13T05:48:50;13.85;;;3.78;;
80700;SDS011;71609;42.630;23.380;2023-10-13T05:51:29;14.32;;;3.70;;
80700;SDS011;71609;42.630;23.380;2023-10-13T05:54:09;11.38;;;3.65;;
80700;SDS011;71609;42.630;23.380;2023-10-13T05:56:48;11.60;;;3.45;;
80700;SDS011;71609;42.630;23.380;2023-10-13T05:59:37;18.52;;;4.22;;
80700;SDS011;71609;42.630;23.380;2023-10-13T06:02:22;19.30;;;4.00;;
80700;SDS011;71609;42.630;23.380;2023-10-13T06:05:08;33.83;;;4.40;;
80700;SDS011;71609;42.630;23.380;2023-10-13T06:07:53;9.65;;;3.90;;
80700;SDS011;71609;42.630;23.380;2023-10-13T06:10:39;17.25;;;3.78;;
80700;SDS011;71609;42.630;23.380;2023-10-13T06:13:24;11.88;;;3.85;;
80700;SDS011;71609;42.630;23.380;2023-10-13T06:16:09;10.25;;;4.03;;
80700;SDS011;71609;42.630;23.380;2023-10-13T06:18:57;25.80;;;3.78;;
80700;SDS011;71609;42.630;23.380;2023-10-13T06:21:42;15.07;;;3.70;;
80700;SDS011;71609;42.630;23.380;2023-10-13T06:24:27;16.20;;;3.95;;
80700;SDS011;71609;42.630;23.380;2023-10-13T06:27:11;14.13;;;4.05;;
80700;SDS011;71609;42.630;23.380;2023-10-13T06:29:56;13.82;;;4.05;;
80700;SDS011;71609;42.630;23.380;2023-10-13T06:32:22;12.52;;;3.70;;
80700;SDS011;71609;42.630;23.380;2023-10-13T06:34:59;11.67;;;3.27;;
80700;SDS011;71609;42.630;23.380;2023-10-13T06:37:46;25.98;;;3.72;;
80700;SDS011;71609;42.630;23.380;2023-10-13T06:40:28;14.73;;;3.97;;
80700;SDS011;71609;42.630;23.380;2023-10-13T06:43:05;14.23;;;3.85;;
80700;SDS011;71609;42.630;23.380;2023-10-13T06:45:41;12.27;;;4.03;;
80700;SDS011;71609;42.630;23.380;2023-10-13T06:48:26;11.80;;;4.30;;
80700;SDS011;71609;42.630;23.380;2023-10-13T06:50:52;17.33;;;4.50;;
80700;SDS011;71609;42.630;23.380;2023-10-13T06:53:21;17.67;;;4.70;;
80700;SDS011;71609;42.630;23.380;2023-10-13T06:55:47;13.45;;;4.50;;
80700;SDS011;71609;42.630;23.380;2023-10-13T06:58:17;20.63;;;5.25;;
80700;SDS011;71609;42.630;23.380;2023-10-13T07:00:49;20.75;;;4.60;;
80700;SDS011;71609;42.630;23.380;2023-10-13T07:03:24;20.95;;;4.93;;
80700;SDS011;71609;42.630;23.380;2023-10-13T07:05:50;23.48;;;4.53;;
80700;SDS011;71609;42.630;23.380;2023-10-13T07:08:17;22.00;;;5.00;;
80700;SDS011;71609;42.630;23.380;2023-10-13T07:13:26;40.08;;;4.78;;
80700;SDS011;71609;42.630;23.380;2023-10-13T07:15:53;28.27;;;4.78;;
80700;SDS011;71609;42.630;23.380;2023-10-13T07:18:25;23.83;;;5.15;;
80700;SDS011;71609;42.630;23.380;2023-10-13T07:20:51;27.67;;;5.00;;
80700;SDS011;71609;42.630;23.380;2023-10-13T07:23:25;25.00;;;4.90;;
80700;SDS011;71609;42.630;23.380;2023-10-13T07:25:52;33.20;;;5.05;;
80700;SDS011;71609;42.630;23.380;2023-10-13T07:28:20;31.85;;;4.93;;
80700;SDS011;71609;42.630;23.380;2023-10-13T07:30:47;20.40;;;5.55;;
80700;SDS011;71609;42.630;23.380;2023-10-13T07:33:18;18.60;;;5.70;;
80700;SDS011;71609;42.630;23.380;2023-10-13T07:35:48;23.33;;;5.47;;
80700;SDS011;71609;42.630;23.380;2023-10-13T07:38:37;15.40;;;5.25;;
80700;SDS011;71609;42.630;23.380;2023-10-13T07:41:03;14.57;;;4.97;;
80700;SDS011;71609;42.630;23.380;2023-10-13T07:43:34;18.50;;;5.47;;
80700;SDS011;71609;42.630;23.380;2023-10-13T07:46:04;15.70;;;5.07;;
80700;SDS011;71609;42.630;23.380;2023-10-13T07:48:37;23.42;;;5.50;;
80700;SDS011;71609;42.630;23.380;2023-10-13T07:51:07;25.20;;;6.03;;
80700;SDS011;71609;42.630;23.380;2023-10-13T07:53:43;22.27;;;5.07;;
80700;SDS011;71609;42.630;23.380;2023-10-13T07:56:13;23.42;;;6.43;;
80700;SDS011;71609;42.630;23.380;2023-10-13T07:58:43;15.98;;;5.20;;
80700;SDS011;71609;42.630;23.380;2023-10-13T08:01:35;14.02;;;5.35;;
80700;SDS011;71609;42.630;23.380;2023-10-13T08:04:14;18.25;;;5.53;;
80700;SDS011;71609;42.630;23.380;2023-10-13T08:07:03;14.95;;;4.55;;
80700;SDS011;71609;42.630;23.380;2023-10-13T08:09:39;18.85;;;4.95;;
80700;SDS011;71609;42.630;23.380;2023-10-13T08:12:16;23.70;;;5.57;;
80700;SDS011;71609;42.630;23.380;2023-10-13T08:15:04;18.52;;;5.28;;
80700;SDS011;71609;42.630;23.380;2023-10-13T08:17:39;21.10;;;5.53;;
80700;SDS011;71609;42.630;23.380;2023-10-13T08:20:09;19.23;;;5.15;;
80700;SDS011;71609;42.630;23.380;2023-10-13T08:22:48;16.00;;;5.68;;
80700;SDS011;71609;42.630;23.380;2023-10-13T08:25:17;15.38;;;5.22;;
80700;SDS011;71609;42.630;23.380;2023-10-13T08:27:49;13.35;;;4.90;;
80700;SDS011;71609;42.630;23.380;2023-10-13T08:30:35;16.65;;;4.88;;
80700;SDS011;71609;42.630;23.380;2023-10-13T08:33:16;31.17;;;6.75;;
80700;SDS011;71609;42.630;23.380;2023-10-13T08:35:55;68.85;;;9.40;;
80700;SDS011;71609;42.630;23.380;2023-10-13T08:38:40;47.25;;;6.82;;
80700;SDS011;71609;42.630;23.380;2023-10-13T08:41:16;37.30;;;6.55;;
80700;SDS011;71609;42.630;23.380;2023-10-13T08:43:41;45.03;;;7.03;;
80700;SDS011;71609;42.630;23.380;2023-10-13T08:46:10;42.30;;;6.68;;
80700;SDS011;71609;42.630;23.380;2023-10-13T08:48:50;33.75;;;6.72;;
80700;SDS011;71609;42.630;23.380;2023-10-13T08:51:35;38.92;;;6.85;;
80700;SDS011;71609;42.630;23.380;2023-10-13T08:54:30;37.83;;;6.55;;
80700;SDS011;71609;42.630;23.380;2023-10-13T08:57:04;41.45;;;6.28;;
80700;SDS011;71609;42.630;23.380;2023-10-13T09:00:05;32.72;;;6.45;;
80700;SDS011;71609;42.630;23.380;2023-10-13T09:02:53;25.87;;;7.57;;
80700;SDS011;71609;42.630;23.380;2023-10-13T09:05:51;32.63;;;6.65;;
80700;SDS011;71609;42.630;23.380;2023-10-13T09:08:26;28.00;;;6.80;;
80700;SDS011;71609;42.630;23.380;2023-10-13T09:11:22;38.42;;;8.35;;
80700;SDS011;71609;42.630;23.380;2023-10-13T09:13:52;67.60;;;8.02;;
80700;SDS011;71609;42.630;23.380;2023-10-13T09:16:18;51.35;;;7.68;;
80700;SDS011;71609;42.630;23.380;2023-10-13T09:19:03;58.58;;;8.95;;
80700;SDS011;71609;42.630;23.380;2023-10-13T09:21:40;39.78;;;7.72;;
80700;SDS011;71609;42.630;23.380;2023-10-13T09:24:10;51.17;;;8.07;;
80700;SDS011;71609;42.630;23.380;2023-10-13T09:27:03;30.42;;;7.72;;
80700;SDS011;71609;42.630;23.380;2023-10-13T09:29:30;36.80;;;7.95;;
80700;SDS011;71609;42.630;23.380;2023-10-13T09:32:03;24.63;;;8.05;;
80700;SDS011;71609;42.630;23.380;2023-10-13T09:34:35;25.15;;;7.88;;
80700;SDS011;71609;42.630;23.380;2023-10-13T09:37:05;25.60;;;7.47;;
80700;SDS011;71609;42.630;23.380;2023-10-13T09:39:32;37.75;;;7.45;;
80700;SDS011;71609;42.630;23.380;2023-10-13T09:42:17;32.80;;;8.48;;
80700;SDS011;71609;42.630;23.380;2023-10-13T09:47:40;29.17;;;7.88;;
80700;SDS011;71609;42.630;23.380;2023-10-13T09:50:09;27.35;;;8.02;;
80700;SDS011;71609;42.630;23.380;2023-10-13T09:52:49;20.30;;;7.47;;
80700;SDS011;71609;42.630;23.380;2023-10-13T09:55:27;36.42;;;7.82;;
80700;SDS011;71609;42.630;23.380;2023-10-13T09:58:05;21.88;;;7.20;;
80700;SDS011;71609;42.630;23.380;2023-10-13T10:03:48;31.10;;;7.72;;
80700;SDS011;71609;42.630;23.380;2023-10-13T10:06:21;23.58;;;8.10;;
80700;SDS011;71609;42.630;23.380;2023-10-13T10:09:08;25.95;;;7.22;;
80700;SDS011;71609;42.630;23.380;2023-10-13T10:17:38;24.45;;;7.40;;
80700;SDS011;71609;42.630;23.380;2023-10-13T10:20:08;29.27;;;6.97;;
80700;SDS011;71609;42.630;23.380;2023-10-13T10:22:54;38.67;;;7.28;;
80700;SDS011;71609;42.630;23.380;2023-10-13T10:25:30;31.55;;;7.40;;
80700;SDS011;71609;42.630;23.380;2023-10-13T10:28:06;23.20;;;6.50;;
80700;SDS011;71609;42.630;23.380;2023-10-13T10:30:35;27.52;;;6.57;;
80700;SDS011;71609;42.630;23.380;2023-10-13T10:33:07;17.42;;;6.13;;
80700;SDS011;71609;42.630;23.380;2023-10-13T10:35:46;18.65;;;6.07;;
80700;SDS011;71609;42.630;23.380;2023-10-13T10:41:39;18.20;;;6.13;;
80700;SDS011;71609;42.630;23.380;2023-10-13T10:44:13;17.80;;;5.22;;
80700;SDS011;71609;42.630;23.380;2023-10-13T10:47:08;20.25;;;5.80;;
80700;SDS011;71609;42.630;23.380;2023-10-13T10:49:57;15.95;;;4.93;;
80700;SDS011;71609;42.630;23.380;2023-10-13T10:52:25;18.83;;;5.40;;
80700;SDS011;71609;42.630;23.380;2023-10-13T10:54:59;13.82;;;5.10;;
80700;SDS011;71609;42.630;23.380;2023-10-13T10:57:24;19.88;;;6.10;;
80700;SDS011;71609;42.630;23.380;2023-10-13T10:59:55;22.40;;;5.55;;
80700;SDS011;71609;42.630;23.380;2023-10-13T11:02:42;15.88;;;5.35;;
80700;SDS011;71609;42.630;23.380;2023-10-13T11:05:07;22.35;;;4.70;;
80700;SDS011;71609;42.630;23.380;2023-10-13T11:07:35;16.02;;;4.57;;
80700;SDS011;71609;42.630;23.380;2023-10-13T11:10:10;41.20;;;4.90;;
80700;SDS011;71609;42.630;23.380;2023-10-13T11:12:59;19.10;;;4.43;;
80700;SDS011;71609;42.630;23.380;2023-10-13T11:15:44;13.93;;;4.15;;
80700;SDS011;71609;42.630;23.380;2023-10-13T11:18:10;22.88;;;4.20;;
80700;SDS011;71609;42.630;23.380;2023-10-13T11:20:46;25.27;;;4.00;;
80700;SDS011;71609;42.630;23.380;2023-10-13T11:25:42;11.52;;;3.33;;
80700;SDS011;71609;42.630;23.380;2023-10-13T11:28:14;16.27;;;3.93;;
80700;SDS011;71609;42.630;23.380;2023-10-13T11:30:52;12.02;;;3.42;;
80700;SDS011;71609;42.630;23.380;2023-10-13T11:33:23;15.25;;;3.60;;
80700;SDS011;71609;42.630;23.380;2023-10-13T11:35:51;13.40;;;3.55;;
80700;SDS011;71609;42.630;23.380;2023-10-13T11:38:30;16.60;;;4.30;;
80700;SDS011;71609;42.630;23.380;2023-10-13T11:41:14;12.38;;;3.30;;
80700;SDS011;71609;42.630;23.380;2023-10-13T11:43:44;15.77;;;3.30;;
80700;SDS011;71609;42.630;23.380;2023-10-13T11:46:23;10.27;;;3.05;;
80700;SDS011;71609;42.630;23.380;2023-10-13T11:49:00;8.70;;;2.80;;
80700;SDS011;71609;42.630;23.380;2023-10-13T11:51:30;8.68;;;2.80;;
80700;SDS011;71609;42.630;23.380;2023-10-13T11:53:57;10.85;;;2.80;;
80700;SDS011;71609;42.630;23.380;2023-10-13T11:56:24;13.48;;;3.40;;
80700;SDS011;71609;42.630;23.380;2023-10-13T11:58:50;8.15;;;3.20;;
80700;SDS011;71609;42.630;23.380;2023-10-13T12:01:16;11.23;;;2.72;;
80700;SDS011;71609;42.630;23.380;2023-10-13T12:03:44;11.38;;;2.90;;
80700;SDS011;71609;42.630;23.380;2023-10-13T12:06:29;12.70;;;3.10;;
80700;SDS011;71609;42.630;23.380;2023-10-13T12:09:02;15.88;;;3.13;;
80700;SDS011;71609;42.630;23.380;2023-10-13T12:11:41;21.95;;;3.97;;
80700;SDS011;71609;42.630;23.380;2023-10-13T12:14:07;28.33;;;3.63;;
80700;SDS011;71609;42.630;23.380;2023-10-13T12:16:42;42.30;;;4.75;;
80700;SDS011;71609;42.630;23.380;2023-10-13T12:19:21;44.72;;;4.55;;
80700;SDS011;71609;42.630;23.380;2023-10-13T12:21:54;32.83;;;3.75;;
80700;SDS011;71609;42.630;23.380;2023-10-13T12:24:24;26.63;;;3.67;;
80700;SDS011;71609;42.630;23.380;2023-10-13T12:27:02;34.90;;;3.78;;
80700;SDS011;71609;42.630;23.380;2023-10-13T12:29:28;42.80;;;5.18;;
80700;SDS011;71609;42.630;23.380;2023-10-13T12:31:54;34.05;;;3.65;;
80700;SDS011;71609;42.630;23.380;2023-10-13T12:42:56;53.15;;;4.57;;
80700;SDS011;71609;42.630;23.380;2023-10-13T12:45:43;42.17;;;4.55;;
80700;SDS011;71609;42.630;23.380;2023-10-13T12:51:13;55.40;;;4.95;;
80700;SDS011;71609;42.630;23.380;2023-10-13T12:53:55;72.10;;;6.40;;
80700;SDS011;71609;42.630;23.380;2023-10-13T12:56:29;58.83;;;6.00;;
80700;SDS011;71609;42.630;23.380;2023-10-13T12:58:55;41.13;;;6.60;;
80700;SDS011;71609;42.630;23.380;2023-10-13T13:01:22;45.95;;;5.53;;
80700;SDS011;71609;42.630;23.380;2023-10-13T13:03:50;37.05;;;5.75;;
80700;SDS011;71609;42.630;23.380;2023-10-13T13:06:24;55.92;;;5.03;;
80700;SDS011;71609;42.630;23.380;2023-10-13T13:08:54;36.90;;;5.25;;
80700;SDS011;71609;42.630;23.380;2023-10-13T13:11:21;30.15;;;4.95;;
80700;SDS011;71609;42.630;23.380;2023-10-13T13:13:47;57.65;;;5.88;;
80700;SDS011;71609;42.630;23.380;2023-10-13T13:16:13;46.90;;;4.93;;
80700;SDS011;71609;42.630;23.380;2023-10-13T13:18:40;57.33;;;5.95;;
80700;SDS011;71609;42.630;23.380;2023-10-13T13:21:08;36.45;;;5.57;;
80700;SDS011;71609;42.630;23.380;2023-10-13T13:23:46;69.82;;;7.43;;
80700;SDS011;71609;42.630;23.380;2023-10-13T13:26:12;57.88;;;5.72;;
80700;SDS011;71609;42.630;23.380;2023-10-13T13:28:42;45.67;;;4.90;;
80700;SDS011;71609;42.630;23.380;2023-10-13T13:31:20;47.63;;;6.47;;
80700;SDS011;71609;42.630;23.380;2023-10-13T13:33:56;38.05;;;4.18;;
80700;SDS011;71609;42.630;23.380;2023-10-13T13:36:22;48.35;;;6.25;;
80700;SDS011;71609;42.630;23.380;2023-10-13T13:38:47;42.70;;;5.60;;
80700;SDS011;71609;42.630;23.380;2023-10-13T13:41:19;44.47;;;5.10;;
80700;SDS011;71609;42.630;23.380;2023-10-13T13:43:46;54.35;;;6.45;;
80700;SDS011;71609;42.630;23.380;2023-10-13T13:46:16;59.92;;;5.22;;
80700;SDS011;71609;42.630;23.380;2023-10-13T13:48:43;47.95;;;5.53;;
80700;SDS011;71609;42.630;23.380;2023-10-13T13:51:12;68.28;;;6.45;;
80700;SDS011;71609;42.630;23.380;2023-10-13T13:53:51;43.50;;;4.70;;
80700;SDS011;71609;42.630;23.380;2023-10-13T13:56:18;52.90;;;5.07;;
80700;SDS011;71609;42.630;23.380;2023-10-13T13:58:44;44.90;;;5.30;;
80700;SDS011;71609;42.630;23.380;2023-10-13T14:01:11;34.42;;;4.20;;
80700;SDS011;71609;42.630;23.380;2023-10-13T14:03:40;37.92;;;4.32;;
80700;SDS011;71609;42.630;23.380;2023-10-13T14:06:14;44.03;;;4.95;;
80700;SDS011;71609;42.630;23.380;2023-10-13T14:08:46;33.38;;;4.70;;
80700;SDS011;71609;42.630;23.380;2023-10-13T14:11:16;33.72;;;5.38;;
80700;SDS011;71609;42.630;23.380;2023-10-13T14:13:50;37.20;;;4.40;;
80700;SDS011;71609;42.630;23.380;2023-10-13T14:16:20;31.90;;;4.28;;
80700;SDS011;71609;42.630;23.380;2023-10-13T14:18:48;27.67;;;3.95;;
80700;SDS011;71609;42.630;23.380;2023-10-13T14:21:16;32.05;;;4.32;;
80700;SDS011;71609;42.630;23.380;2023-10-13T14:23:48;31.50;;;4.03;;
80700;SDS011;71609;42.630;23.380;2023-10-13T14:26:16;29.10;;;3.63;;
80700;SDS011;71609;42.630;23.380;2023-10-13T14:28:46;26.17;;;3.88;;
80700;SDS011;71609;42.630;23.380;2023-10-13T14:31:25;19.83;;;3.55;;
80700;SDS011;71609;42.630;23.380;2023-10-13T14:33:51;29.45;;;4.28;;
80700;SDS011;71609;42.630;23.380;2023-10-13T14:36:18;17.13;;;3.53;;
80700;SDS011;71609;42.630;23.380;2023-10-13T14:38:48;15.98;;;3.15;;
80700;SDS011;71609;42.630;23.380;2023-10-13T14:41:18;15.50;;;3.05;;
80700;SDS011;71609;42.630;23.380;2023-10-13T14:43:44;27.35;;;3.55;;
80700;SDS011;71609;42.630;23.380;2023-10-13T14:46:15;22.23;;;4.03;;
80700;SDS011;71609;42.630;23.380;2023-10-13T14:48:42;23.95;;;3.22;;
80700;SDS011;71609;42.630;23.380;2023-10-13T14:51:09;18.40;;;3.47;;
80700;SDS011;71609;42.630;23.380;2023-10-13T14:53:38;19.35;;;3.67;;
80700;SDS011;71609;42.630;23.380;2023-10-13T14:56:08;14.90;;;2.80;;
80700;SDS011;71609;42.630;23.380;2023-10-13T14:58:38;25.42;;;3.33;;
80700;SDS011;71609;42.630;23.380;2023-10-13T15:01:12;22.75;;;3.60;;
80700;SDS011;71609;42.630;23.380;2023-10-13T15:03:43;20.25;;;3.17;;
80700;SDS011;71609;42.630;23.380;2023-10-13T15:06:14;16.40;;;3.30;;
80700;SDS011;71609;42.630;23.380;2023-10-13T15:08:43;15.48;;;3.47;;
80700;SDS011;71609;42.630;23.380;2023-10-13T15:11:12;19.52;;;3.25;;
80700;SDS011;71609;42.630;23.380;2023-10-13T15:13:41;16.45;;;3.28;;
80700;SDS011;71609;42.630;23.380;2023-10-13T15:16:17;14.13;;;2.80;;
80700;SDS011;71609;42.630;23.380;2023-10-13T15:18:48;11.60;;;3.08;;
80700;SDS011;71609;42.630;23.380;2023-10-13T15:21:24;19.48;;;4.05;;
80700;SDS011;71609;42.630;23.380;2023-10-13T15:23:53;15.00;;;3.30;;
80700;SDS011;71609;42.630;23.380;2023-10-13T15:26:24;16.65;;;4.15;;
80700;SDS011;71609;42.630;23.380;2023-10-13T15:28:51;14.63;;;2.85;;
80700;SDS011;71609;42.630;23.380;2023-10-13T15:31:21;11.75;;;3.17;;
80700;SDS011;71609;42.630;23.380;2023-10-13T15:33:59;14.13;;;3.83;;
80700;SDS011;71609;42.630;23.380;2023-10-13T15:36:26;12.30;;;2.90;;
80700;SDS011;71609;42.630;23.380;2023-10-13T15:38:52;17.77;;;3.33;;
80700;SDS011;71609;42.630;23.380;2023-10-13T15:41:22;14.10;;;3.58;;
80700;SDS011;71609;42.630;23.380;2023-10-13T15:43:48;17.60;;;3.42;;
80700;SDS011;71609;42.630;23.380;2023-10-13T15:46:21;16.13;;;3.00;;